Time;durP1;ratioP1;P1;durP2;ratioP2;P2;SDS_P1;SDS_P2;PMS_P1;PMS_P2;Temp;Humidity;BMP_temperature;BMP_pressure;BME280_temperature;BME280_humidity;BME280_pressure;Samples;Min_cycle;Max_cycle;Signal;HPM_P1;HPM_P2
2022/08/06 00:03:00;;;;;;;15.80;10.90;;;;;;;21.81;76.51;100817.36;104563;1283;74253;-73
2022/08/06 00:05:29;;;;;;;15.30;11.50;;;;;;;21.82;76.72;100819.02;104670;1283;70339;-69
2022/08/06 00:08:03;;;;;;;13.60;10.40;;;;;;;21.87;76.43;100817.81;104655;1285;64039;-72
2022/08/06 00:10:34;;;;;;;14.80;11.10;;;;;;;21.90;76.30;100814.39;104540;1283;59385;-72
2022/08/06 00:13:03;;;;;;;13.80;11.10;;;;;;;21.90;75.84;100815.27;104677;1283;58777;-72
2022/08/06 00:15:41;;;;;;;14.70;11.20;;;;;;;21.87;75.47;100815.44;104644;1285;62324;-72
2022/08/06 00:18:30;;;;;;;13.30;11.00;;;;;;;21.81;75.87;100814.70;104736;1285;70232;-72
2022/08/06 00:20:58;;;;;;;15.30;11.60;;;;;;;21.80;75.82;100809.36;104661;1285;70253;-71
2022/08/06 00:23:28;;;;;;;13.80;10.80;;;;;;;21.92;75.29;100809.38;104641;1283;74024;-73
2022/08/06 00:26:16;;;;;;;18.40;12.10;;;;;;;21.94;75.14;100810.33;104688;1283;60743;-72
2022/08/06 00:28:45;;;;;;;13.00;11.40;;;;;;;21.92;75.22;100811.96;104441;1286;59272;-73
2022/08/06 00:31:15;;;;;;;16.50;11.20;;;;;;;21.95;75.79;100813.56;104363;1285;73834;-72
2022/08/06 00:33:43;;;;;;;14.10;11.50;;;;;;;21.96;75.40;100810.99;104648;1285;72358;-73
2022/08/06 00:36:26;;;;;;;16.80;12.10;;;;;;;21.99;75.34;100815.19;104861;1285;70688;-74
2022/08/06 00:39:04;;;;;;;14.30;10.50;;;;;;;22.02;75.03;100813.73;104868;1285;72224;-74
2022/08/06 00:41:38;;;;;;;16.40;11.80;;;;;;;22.04;74.67;100816.43;104809;1285;61948;-74
2022/08/06 00:44:14;;;;;;;15.40;11.50;;;;;;;21.92;74.65;100816.49;104464;1285;61015;-69
2022/08/06 00:46:59;;;;;;;17.60;11.60;;;;;;;21.87;74.85;100821.89;104700;1285;63774;-71
2022/08/06 00:49:28;;;;;;;16.60;11.80;;;;;;;21.84;74.59;100820.64;104433;1285;71492;-72
2022/08/06 00:52:17;;;;;;;17.30;11.00;;;;;;;21.79;75.70;100820.54;104550;1285;70579;-74
2022/08/06 00:54:47;;;;;;;13.20;11.80;;;;;;;21.84;74.82;100817.98;104527;1285;73372;-72
2022/08/06 00:57:17;;;;;;;17.30;12.10;;;;;;;21.84;75.20;100819.89;104555;1285;59189;-73
2022/08/06 00:59:50;;;;;;;15.90;12.50;;;;;;;21.85;75.32;100816.56;104577;1285;57618;-73
2022/08/06 01:02:19;;;;;;;19.10;12.30;;;;;;;21.88;75.18;100817.26;104799;1283;62275;-73
2022/08/06 01:04:54;;;;;;;15.30;12.50;;;;;;;21.91;75.55;100818.88;104714;1283;71706;-72
2022/08/06 01:07:43;;;;;;;17.50;11.70;;;;;;;21.94;75.44;100822.28;104796;1283;59139;-72
2022/08/06 01:10:22;;;;;;;14.10;11.00;;;;;;;21.98;75.31;100821.61;104804;1284;74223;-72
2022/08/06 01:13:09;;;;;;;14.30;11.70;;;;;;;22.04;74.91;100820.29;104498;1285;59213;-71
2022/08/06 01:16:05;;;;;;;17.90;12.50;;;;;;;22.06;74.80;100819.40;104670;1283;57574;-70
2022/08/06 01:18:55;;;;;;;13.20;11.70;;;;;;;22.09;74.94;100821.88;104632;1285;62985;-72
2022/08/06 01:22:05;;;;;;;21.20;12.70;;;;;;;22.09;74.78;100821.67;104657;1284;62215;-71
2022/08/06 01:25:22;;;;;;;17.20;11.70;;;;;;;22.05;74.25;100822.34;104744;1283;59223;-73
2022/08/06 01:28:05;;;;;;;15.90;12.10;;;;;;;21.94;74.55;100820.98;104623;1285;62830;-73
2022/08/06 01:30:43;;;;;;;17.70;12.30;;;;;;;21.79;74.94;100826.19;104876;1282;58978;-72
2022/08/06 01:33:27;;;;;;;15.90;11.60;;;;;;;21.66;76.38;100824.15;104864;1282;58247;-71
2022/08/06 01:36:05;;;;;;;18.10;12.30;;;;;;;21.65;77.03;100822.01;104731;1283;73797;-72
2022/08/06 01:38:42;;;;;;;19.40;11.60;;;;;;;21.65;77.63;100823.40;104881;1282;71310;-74
2022/08/06 01:41:40;;;;;;;18.70;12.60;;;;;;;21.67;77.63;100824.95;104879;1282;69770;-72
2022/08/06 01:44:34;;;;;;;15.00;12.30;;;;;;;21.66;77.91;100827.02;104813;1282;72902;-72
2022/08/06 01:47:11;;;;;;;14.40;11.80;;;;;;;21.63;78.23;100826.61;104816;1282;59125;-71
2022/08/06 01:49:51;;;;;;;17.10;12.30;;;;;;;21.60;78.23;100824.10;104859;1282;59202;-71
2022/08/06 01:52:41;;;;;;;18.30;12.20;;;;;;;21.56;78.38;100826.37;104813;1282;72953;-72
2022/08/06 01:55:33;;;;;;;14.20;11.50;;;;;;;21.52;78.88;100828.60;104824;1282;71462;-72
2022/08/06 01:58:31;;;;;;;18.30;12.20;;;;;;;21.51;78.74;100826.82;104774;1284;69912;-73
2022/08/06 02:01:08;;;;;;;16.70;12.20;;;;;;;21.49;79.06;100828.16;104608;1285;63842;-74
2022/08/06 02:03:46;;;;;;;20.00;13.10;;;;;;;21.46;79.17;100826.89;104830;1282;59211;-73
2022/08/06 02:06:40;;;;;;;16.80;11.70;;;;;;;21.40;79.53;100823.86;104756;1283;59201;-73
2022/08/06 02:09:15;;;;;;;16.50;12.20;;;;;;;21.31;80.15;100823.66;104902;1285;63157;-72
2022/08/06 02:12:01;;;;;;;18.20;11.60;;;;;;;21.22;80.69;100831.93;104836;1282;72468;-72
2022/08/06 02:14:46;;;;;;;15.90;13.10;;;;;;;21.16;80.89;100831.17;104809;1282;59913;-72
2022/08/06 02:17:19;;;;;;;15.40;12.30;;;;;;;21.16;80.83;100834.23;104792;1282;74143;-70
2022/08/06 02:20:10;;;;;;;15.40;11.70;;;;;;;21.14;80.77;100832.65;104843;1282;59074;-71
2022/08/06 02:23:02;;;;;;;16.10;12.90;;;;;;;21.15;80.43;100829.55;104769;1282;59180;-72
2022/08/06 02:25:35;;;;;;;14.70;12.40;;;;;;;21.15;80.26;100824.18;104773;1282;63245;-72
2022/08/06 02:28:05;;;;;;;15.60;12.80;;;;;;;21.12;80.37;100822.31;104755;1282;72472;-73
2022/08/06 02:30:41;;;;;;;15.80;13.30;;;;;;;21.03;80.48;100823.36;104845;1282;70592;-71
2022/08/06 02:33:11;;;;;;;19.70;14.10;;;;;;;20.93;79.97;100822.86;104872;1282;63818;-72
2022/08/06 02:36:01;;;;;;;17.00;13.60;;;;;;;20.81;81.68;100822.94;104721;1282;62483;-73
2022/08/06 02:38:48;;;;;;;18.80;14.00;;;;;;;20.76;82.28;100827.88;104889;1282;61972;-72
2022/08/06 02:42:03;;;;;;;15.40;12.60;;;;;;;20.68;82.41;100826.42;104822;1282;73477;-72
2022/08/06 02:45:12;;;;;;;17.00;13.50;;;;;;;20.63;82.75;100823.96;104807;1282;60761;-72
2022/08/06 02:48:02;;;;;;;18.30;14.00;;;;;;;20.59;82.98;100826.03;104820;1282;60557;-74
2022/08/06 02:50:52;;;;;;;17.20;14.00;;;;;;;20.54;83.13;100827.48;105118;1282;73387;-75
2022/08/06 02:53:36;;;;;;;19.20;13.70;;;;;;;20.53;83.03;100830.94;105166;1282;59201;-73
2022/08/06 02:56:27;;;;;;;16.90;13.50;;;;;;;20.56;83.00;100832.39;104925;1282;60613;-72
2022/08/06 02:58:58;;;;;;;18.20;14.10;;;;;;;20.57;82.88;100833.50;104931;1282;62128;-74
2022/08/06 03:01:36;;;;;;;21.80;13.80;;;;;;;20.57;82.27;100832.58;105034;1282;60935;-73
2022/08/06 03:04:14;;;;;;;19.20;13.70;;;;;;;20.59;81.86;100830.08;104629;1283;69933;-74
2022/08/06 03:06:46;;;;;;;15.30;12.30;;;;;;;20.63;81.43;100830.93;104578;1283;73953;-72
2022/08/06 03:09:18;;;;;;;21.90;14.70;;;;;;;20.65;81.90;100833.88;104670;1283;60471;-71
2022/08/06 03:11:48;;;;;;;19.50;13.80;;;;;;;20.62;81.63;100838.27;104656;1283;61260;-72
2022/08/06 03:14:19;;;;;;;19.80;13.90;;;;;;;20.65;81.51;100844.81;104578;1283;73683;-73
2022/08/06 03:17:11;;;;;;;18.50;12.70;;;;;;;20.68;81.09;100844.47;104649;1283;71598;-72
2022/08/06 03:19:43;;;;;;;22.20;14.40;;;;;;;20.69;81.78;100845.59;104598;1283;70080;-72
2022/08/06 03:22:28;;;;;;;19.20;14.20;;;;;;;20.71;81.87;100846.65;104506;1285;73887;-73
2022/08/06 03:25:07;;;;;;;19.20;15.40;;;;;;;20.73;81.54;100849.77;104569;1285;59120;-71
2022/08/06 03:27:38;;;;;;;18.00;13.30;;;;;;;20.75;81.93;100852.92;104749;1283;61509;-74
2022/08/06 03:30:18;;;;;;;20.00;14.70;;;;;;;20.77;81.96;100853.59;104770;1282;62966;-72
2022/08/06 03:33:09;;;;;;;20.40;14.30;;;;;;;20.81;81.80;100860.41;104846;1283;62202;-73
2022/08/06 03:36:01;;;;;;;20.50;14.50;;;;;;;20.85;81.60;100863.27;104739;1282;69447;-71
2022/08/06 03:38:39;;;;;;;25.20;15.10;;;;;;;20.88;81.38;100862.03;104751;1282;63461;-73
2022/08/06 03:41:10;;;;;;;18.60;14.80;;;;;;;20.90;80.99;100861.58;104864;1282;60716;-72
2022/08/06 03:43:45;;;;;;;19.70;14.60;;;;;;;20.90;80.57;100858.92;104816;1282;58763;-73
2022/08/06 03:46:46;;;;;;;22.40;14.10;;;;;;;20.95;79.96;100858.40;104919;1282;74289;-72
2022/08/06 03:49:25;;;;;;;19.40;13.70;;;;;;;21.02;79.46;100859.59;104940;1282;71512;-72
2022/08/06 03:52:16;;;;;;;16.80;12.90;;;;;;;21.10;78.94;100861.33;104934;1282;71143;-73
2022/08/06 03:54:55;;;;;;;18.80;13.70;;;;;;;21.16;78.70;100861.95;105040;1282;73272;-74
2022/08/06 03:57:34;;;;;;;19.30;12.90;;;;;;;21.24;78.11;100867.88;104680;1286;61098;-76
2022/08/06 04:00:19;;;;;;;17.60;13.20;;;;;;;21.31;77.80;100869.67;104614;1285;58666;-74
2022/08/06 04:02:58;;;;;;;18.00;13.00;;;;;;;21.36;77.41;100865.86;104592;1288;73141;-76
2022/08/06 04:05:33;;;;;;;19.20;12.70;;;;;;;21.41;77.20;100868.18;104696;1286;60940;-75
2022/08/06 04:08:07;;;;;;;21.90;12.70;;;;;;;21.46;76.86;100870.08;104466;1288;70001;-74
2022/08/06 04:10:42;;;;;;;17.10;12.90;;;;;;;21.46;76.82;100871.13;104629;1288;74421;-74
2022/08/06 04:13:27;;;;;;;17.90;14.20;;;;;;;21.48;76.73;100871.13;104565;1285;59184;-73
2022/08/06 04:16:18;;;;;;;14.90;12.60;;;;;;;21.52;76.41;100876.98;104543;1284;61198;-73
2022/08/06 04:19:06;;;;;;;15.80;12.90;;;;;;;21.52;76.38;100877.91;104857;1282;62319;-73
2022/08/06 04:21:40;;;;;;;17.90;13.50;;;;;;;21.53;76.49;100878.98;104922;1282;72529;-70
2022/08/06 04:24:29;;;;;;;20.90;12.80;;;;;;;21.55;76.50;100876.55;104787;1282;70361;-73
2022/08/06 04:27:04;;;;;;;16.80;12.40;;;;;;;21.60;76.14;100878.38;104718;1282;75020;-73
2022/08/06 04:29:38;;;;;;;15.60;12.10;;;;;;;21.64;75.90;100877.25;104774;1282;59018;-71
2022/08/06 04:32:28;;;;;;;15.40;12.40;;;;;;;21.67;75.84;100878.90;104812;1281;61549;-71
2022/08/06 04:35:07;;;;;;;19.20;12.80;;;;;;;21.68;75.65;100878.63;104699;1282;73502;-72
2022/08/06 04:37:58;;;;;;;17.90;13.30;;;;;;;21.74;75.26;100877.63;104812;1282;62253;-73
2022/08/06 04:40:29;;;;;;;15.40;12.20;;;;;;;21.83;75.18;100876.35;104718;1285;68140;-74
2022/08/06 04:43:18;;;;;;;18.60;12.90;;;;;;;21.91;74.83;100874.67;104834;1282;74291;-72
2022/08/06 04:45:49;;;;;;;16.30;12.30;;;;;;;21.98;74.71;100880.09;104788;1282;63577;-73
2022/08/06 04:48:38;;;;;;;18.00;12.50;;;;;;;22.08;74.03;100881.08;104661;1283;61180;-73
2022/08/06 04:51:16;;;;;;;16.60;12.00;;;;;;;22.15;73.63;100883.21;104806;1282;72890;-73
2022/08/06 04:54:05;;;;;;;15.60;12.10;;;;;;;22.28;73.48;100885.84;104845;1282;72964;-73
2022/08/06 04:56:40;;;;;;;15.70;12.00;;;;;;;22.37;72.99;100886.25;104822;1282;70393;-75
2022/08/06 04:59:17;;;;;;;18.00;12.20;;;;;;;22.45;72.65;100891.41;104713;1283;74011;-74
2022/08/06 05:01:47;;;;;;;18.90;11.80;;;;;;;22.48;72.59;100888.38;104778;1282;62953;-75
2022/08/06 05:04:33;;;;;;;16.70;12.50;;;;;;;22.50;72.72;100887.46;104763;1282;59076;-73
2022/08/06 05:07:31;;;;;;;15.60;12.00;;;;;;;22.57;72.48;100890.66;104956;1282;73838;-74
2022/08/06 05:10:30;;;;;;;15.60;12.30;;;;;;;22.62;72.31;100892.61;104818;1282;72367;-73
2022/08/06 05:13:00;;;;;;;14.60;11.60;;;;;;;22.65;71.76;100894.29;104936;1282;71707;-75
2022/08/06 05:15:41;;;;;;;17.90;12.20;;;;;;;22.73;71.43;100898.66;104824;1282;75060;-74
2022/08/06 05:18:29;;;;;;;14.30;12.00;;;;;;;22.79;71.45;100896.89;104809;1282;61214;-75
2022/08/06 05:21:36;;;;;;;16.10;12.10;;;;;;;22.84;71.12;100896.10;104846;1282;59771;-73
2022/08/06 05:24:27;;;;;;;15.10;11.60;;;;;;;22.96;70.75;100891.19;104868;1282;73235;-74
2022/08/06 05:27:16;;;;;;;15.60;11.50;;;;;;;23.10;70.34;100896.98;103602;1284;1503329;-74
2022/08/06 05:29:45;;;;;;;16.20;11.70;;;;;;;23.22;70.06;100897.78;104714;1284;59259;-74
2022/08/06 05:32:22;;;;;;;13.00;11.10;;;;;;;23.33;69.67;100896.98;104786;1282;62724;-73
2022/08/06 05:34:52;;;;;;;15.00;11.90;;;;;;;23.42;69.16;100898.88;104725;1285;59214;-73
2022/08/06 05:37:21;;;;;;;15.00;10.70;;;;;;;23.48;68.88;100901.15;104913;1282;58520;-75
2022/08/06 05:40:10;;;;;;;15.10;12.00;;;;;;;23.55;68.31;100893.59;104907;1282;73030;-74
2022/08/06 05:42:39;;;;;;;14.20;10.70;;;;;;;23.60;68.26;100894.57;104765;1282;60827;-74
2022/08/06 05:45:24;;;;;;;14.30;11.70;;;;;;;23.70;67.87;100895.84;104836;1282;59777;-73
2022/08/06 05:47:58;;;;;;;15.30;11.10;;;;;;;23.73;67.59;100894.52;104752;1282;73367;-74
2022/08/06 05:50:34;;;;;;;13.20;10.70;;;;;;;23.78;67.10;100894.65;104833;1282;60407;-73
2022/08/06 05:53:19;;;;;;;12.60;10.80;;;;;;;23.76;67.12;100891.63;104676;1282;59180;-74
2022/08/06 05:56:16;;;;;;;14.60;10.70;;;;;;;23.75;66.98;100891.58;104526;1282;75013;-73
2022/08/06 05:59:35;;;;;;;15.30;11.60;;;;;;;23.82;66.92;100895.20;104762;1282;61601;-78
2022/08/06 06:02:26;;;;;;;15.20;10.80;;;;;;;23.93;66.51;100896.64;104732;1282;60226;-76
2022/08/06 06:04:59;;;;;;;18.80;13.50;;;;;;;23.93;65.97;100890.94;104772;1282;63410;-74
2022/08/06 06:07:49;;;;;;;14.50;11.40;;;;;;;24.00;65.66;100891.36;104724;1282;59203;-75
2022/08/06 06:10:40;;;;;;;44.00;39.50;;;;;;;23.97;65.51;100888.80;104846;1282;59092;-75
2022/08/06 06:13:27;;;;;;;16.40;13.60;;;;;;;24.00;65.41;100886.85;104633;1285;63234;-75
2022/08/06 06:16:46;;;;;;;24.50;13.30;;;;;;;24.05;65.28;100891.02;104603;1285;62807;-73
2022/08/06 06:19:34;;;;;;;19.20;11.20;;;;;;;24.04;65.09;100888.48;104706;1285;59341;-73
2022/08/06 06:22:35;;;;;;;14.90;10.30;;;;;;;24.09;65.22;100886.91;104691;1285;63369;-75
2022/08/06 06:25:07;;;;;;;14.10;10.80;;;;;;;24.13;64.60;100890.39;104727;1285;59103;-78
2022/08/06 06:28:02;;;;;;;12.50;10.10;;;;;;;24.13;64.24;100892.19;104688;1284;58447;-75
2022/08/06 06:31:23;;;;;;;12.50;10.10;;;;;;;24.24;64.01;100886.97;104654;1283;74365;-75
2022/08/06 06:35:29;;;;;;;14.30;10.20;;;;;;;24.31;62.93;100885.04;104200;1292;60900;-73
2022/08/06 06:38:34;;;;;;;12.70;10.20;;;;;;;24.42;62.08;100888.11;104141;1287;70043;-75
2022/08/06 06:41:22;;;;;;;13.50;10.20;;;;;;;24.45;61.45;100888.26;104511;1288;73869;-74
2022/08/06 06:44:39;;;;;;;12.40;10.40;;;;;;;24.41;61.70;100883.60;104571;1286;59223;-72
2022/08/06 06:47:54;;;;;;;15.30;9.70;;;;;;;24.59;61.45;100882.50;104574;1288;59346;-73
2022/08/06 06:50:45;;;;;;;16.10;10.40;;;;;;;24.81;60.87;100886.16;104561;1285;73926;-75
2022/08/06 06:53:17;;;;;;;18.70;10.40;;;;;;;24.90;59.73;100883.15;104746;1283;71461;-74
2022/08/06 06:55:56;;;;;;;14.10;10.20;;;;;;;25.06;59.32;100877.14;104670;1283;70667;-74
2022/08/06 06:58:58;;;;;;;12.90;9.40;;;;;;;25.17;58.86;100876.27;104665;1285;63249;-73
2022/08/06 07:01:31;;;;;;;11.90;9.80;;;;;;;25.25;59.26;100875.83;104711;1283;60663;-76
2022/08/06 07:04:08;;;;;;;12.10;9.90;;;;;;;25.30;58.94;100871.23;104769;1285;59253;-76
2022/08/06 07:06:39;;;;;;;11.60;9.40;;;;;;;25.33;58.90;100869.84;104594;1285;73107;-76
2022/08/06 07:09:21;;;;;;;10.70;9.60;;;;;;;25.39;58.60;100871.80;104801;1283;72568;-78
2022/08/06 07:12:12;;;;;;;11.90;10.40;;;;;;;25.44;58.48;100871.05;104674;1283;69566;-74
2022/08/06 07:14:55;;;;;;;11.30;10.10;;;;;;;25.30;58.46;100868.23;104632;1285;73119;-75
2022/08/06 07:17:32;;;;;;;12.90;9.50;;;;;;;25.46;58.65;100872.69;104976;1283;59164;-75
2022/08/06 07:20:28;;;;;;;13.00;10.00;;;;;;;25.69;57.84;100872.01;104822;1285;60796;-76
2022/08/06 07:23:22;;;;;;;;;;;;;;;;;;;;;
2022/08/06 07:26:46;;;;;;;10.10;8.50;;;;;;;26.01;56.57;100875.30;104700;1283;61966;-75
2022/08/06 07:29:30;;;;;;;10.90;8.80;;;;;;;26.15;55.30;100871.41;104417;1285;60243;-74
2022/08/06 07:32:19;;;;;;;10.20;8.90;;;;;;;26.04;54.66;100872.62;104762;1283;73191;-74
2022/08/06 07:35:04;;;;;;;12.20;8.70;;;;;;;26.02;54.77;100869.29;104716;1285;59220;-77
2022/08/06 07:37:58;;;;;;;11.70;8.80;;;;;;;26.08;54.94;100867.46;104620;1285;59274;-70
2022/08/06 07:40:40;;;;;;;10.70;8.60;;;;;;;26.05;54.95;100865.48;104720;1285;62359;-73
2022/08/06 07:43:25;;;;;;;10.50;8.80;;;;;;;25.88;55.29;100859.71;104761;1283;71724;-75
2022/08/06 07:46:08;;;;;;;11.20;8.90;;;;;;;26.06;55.09;100864.95;104722;1285;60023;-76
2022/08/06 07:49:16;;;;;;;11.20;9.10;;;;;;;26.19;54.61;100859.81;104682;1283;73379;-74
2022/08/06 07:51:47;;;;;;;10.30;8.90;;;;;;;26.33;54.25;100858.60;104527;1285;59063;-76
2022/08/06 07:54:21;;;;;;;9.90;8.10;;;;;;;26.63;53.53;100859.79;104799;1283;61643;-74
2022/08/06 07:57:46;;;;;;;11.20;9.70;;;;;;;26.74;53.50;100858.95;104367;1288;63531;-76
2022/08/06 08:00:24;;;;;;;9.40;8.40;;;;;;;26.84;53.43;100859.77;104442;1286;60907;-75
2022/08/06 08:07:14;;;;;;;9.50;8.50;;;;;;;27.33;51.88;100851.79;104370;1288;63819;-77
2022/08/06 08:09:48;;;;;;;8.50;7.60;;;;;;;27.53;50.60;100854.96;104465;1287;62129;-76
2022/08/06 08:12:33;;;;;;;15.00;12.50;;;;;;;27.49;49.83;100858.77;104410;1288;60303;-76
2022/08/06 08:15:08;;;;;;;8.50;7.50;;;;;;;27.41;49.51;100862.45;104512;1283;62788;-76
2022/08/06 08:18:34;;;;;;;8.40;7.50;;;;;;;27.53;48.83;100855.58;104572;1288;64145;-75
2022/08/06 08:21:03;;;;;;;8.80;7.80;;;;;;;27.61;49.17;100852.21;104429;1288;70725;-76
2022/08/06 08:23:34;;;;;;;10.60;8.20;;;;;;;27.72;49.19;100854.65;104591;1287;63765;-74
2022/08/06 08:26:12;;;;;;;10.90;8.20;;;;;;;27.80;48.91;100857.16;104360;1288;61545;-77
2022/08/06 08:28:41;;;;;;;8.40;7.50;;;;;;;27.55;48.84;100865.55;104642;1286;60948;-75
2022/08/06 08:31:13;;;;;;;8.70;7.70;;;;;;;27.38;49.11;100867.22;104602;1286;73422;-75
2022/08/06 08:34:42;;;;;;;11.70;7.80;;;;;;;27.74;48.94;100866.42;104304;1288;71113;-76
2022/08/06 08:37:22;;;;;;;10.90;7.30;;;;;;;28.11;47.89;100865.36;104408;1289;69947;-77
2022/08/06 08:39:51;;;;;;;8.20;7.30;;;;;;;28.46;46.13;100856.27;104323;1289;74495;-77
2022/08/06 08:42:36;;;;;;;8.70;7.10;;;;;;;28.58;45.81;100854.67;104322;1288;62367;-76
2022/08/06 08:45:07;;;;;;;9.00;8.10;;;;;;;28.54;46.19;100856.19;104453;1288;61171;-76
2022/08/06 08:47:49;;;;;;;9.50;7.70;;;;;;;28.48;46.33;100861.91;104484;1288;74495;-76
2022/08/06 08:50:30;;;;;;;9.60;7.70;;;;;;;28.35;47.05;100860.34;104418;1288;71939;-78
2022/08/06 08:56:49;;;;;;;10.20;8.10;;;;;;;28.25;47.36;100869.55;104698;1285;73367;-76
2022/08/06 09:00:14;;;;;;;8.90;8.00;;;;;;;28.23;47.34;100865.85;104255;1287;61105;-77
2022/08/06 09:02:54;;;;;;;9.50;7.60;;;;;;;28.07;47.67;100864.66;104234;1288;60537;-75
2022/08/06 09:05:25;;;;;;;8.60;7.70;;;;;;;28.20;47.24;100864.10;104195;1288;72021;-76
2022/08/06 09:08:02;;;;;;;8.60;7.70;;;;;;;28.09;46.91;100861.03;104442;1288;73093;-75
2022/08/06 09:10:31;;;;;;;8.80;7.70;;;;;;;28.54;46.65;100855.15;104485;1288;71218;-75
2022/08/06 09:13:05;;;;;;;8.90;7.90;;;;;;;28.49;46.47;100858.02;104450;1288;62647;-74
2022/08/06 09:15:55;;;;;;;9.90;8.40;;;;;;;28.73;46.27;100859.06;104487;1288;58881;-76
2022/08/06 09:18:57;;;;;;;8.20;7.30;;;;;;;28.80;46.26;100856.10;104667;1285;57605;-77
2022/08/06 09:21:32;;;;;;;9.80;7.70;;;;;;;29.12;45.30;100849.88;104572;1285;74264;-78
2022/08/06 09:24:04;;;;;;;8.80;7.90;;;;;;;29.30;44.06;100845.21;104566;1285;61739;-75
2022/08/06 09:26:33;;;;;;;10.20;7.40;;;;;;;29.85;43.06;100845.69;104759;1285;70011;-75
2022/08/06 09:29:22;;;;;;;8.00;7.10;;;;;;;29.96;42.31;100845.89;104742;1285;73607;-74
2022/08/06 09:32:06;;;;;;;16.70;11.10;;;;;;;30.03;42.59;100847.98;104609;1285;61788;-74
2022/08/06 09:34:43;;;;;;;9.20;7.80;;;;;;;29.67;43.40;100846.56;104754;1283;57765;-74
2022/08/06 09:37:30;;;;;;;11.60;8.60;;;;;;;29.84;42.88;100842.80;104657;1285;63848;-76
2022/08/06 09:40:19;;;;;;;11.20;8.40;;;;;;;30.03;42.72;100843.23;104790;1283;72384;-75
2022/08/06 09:42:50;;;;;;;10.90;9.10;;;;;;;30.21;42.22;100839.81;104778;1283;59728;-75
2022/08/06 09:45:23;;;;;;;9.00;7.20;;;;;;;30.27;41.65;100838.86;104739;1283;63367;-77
2022/08/06 09:48:11;;;;;;;7.80;6.90;;;;;;;30.51;41.11;100837.54;104652;1285;59221;-76
2022/08/06 09:50:50;;;;;;;11.50;7.20;;;;;;;30.65;40.65;100833.48;104736;1283;60834;-75
2022/08/06 09:53:21;;;;;;;8.70;7.50;;;;;;;30.76;41.05;100836.61;104755;1285;73674;-72
2022/08/06 09:55:52;;;;;;;8.60;7.70;;;;;;;30.69;40.84;100833.17;104755;1283;71979;-77
2022/08/06 10:03:09;;;;;;;7.60;6.80;;;;;;;30.24;41.29;100826.73;104662;1285;67047;-74
2022/08/06 10:06:20;;;;;;;8.20;7.40;;;;;;;30.06;41.67;100827.10;104799;1285;59135;-75
2022/08/06 10:09:09;;;;;;;9.50;7.10;;;;;;;29.87;41.36;100826.92;104820;1284;60649;-75
2022/08/06 10:11:59;;;;;;;9.70;7.00;;;;;;;29.97;41.75;100829.59;104664;1285;63215;-75
2022/08/06 10:14:32;;;;;;;8.20;6.90;;;;;;;30.28;41.36;100831.73;104612;1285;72524;-75
2022/08/06 10:17:20;;;;;;;8.30;7.00;;;;;;;30.55;40.74;100827.30;104680;1283;70326;-76
2022/08/06 10:20:10;;;;;;;8.90;7.90;;;;;;;30.69;40.14;100829.04;104703;1283;74017;-76
2022/08/06 10:22:57;;;;;;;8.30;7.30;;;;;;;30.89;40.09;100829.56;104518;1283;61487;-76
2022/08/06 10:25:29;;;;;;;8.00;7.00;;;;;;;30.90;40.32;100831.29;104724;1283;61076;-75
2022/08/06 10:28:14;;;;;;;8.00;7.20;;;;;;;31.02;40.38;100823.66;104618;1285;62380;-79
2022/08/06 10:30:45;;;;;;;8.50;7.00;;;;;;;30.97;40.53;100820.08;104704;1285;61910;-75
2022/08/06 10:33:16;;;;;;;7.90;7.00;;;;;;;30.94;40.21;100824.17;104828;1282;69902;-74
2022/08/06 10:36:08;;;;;;;10.80;7.70;;;;;;;30.67;40.77;100828.80;104742;1283;63417;-75
2022/08/06 10:38:48;;;;;;;8.00;7.20;;;;;;;30.60;40.73;100831.39;104513;1285;59057;-76
2022/08/06 10:41:25;;;;;;;8.00;7.00;;;;;;;30.34;40.90;100830.23;104617;1283;58878;-75
2022/08/06 10:44:51;;;;;;;7.70;6.60;;;;;;;30.41;41.10;100828.96;104391;1288;73933;-76
2022/08/06 10:47:22;;;;;;;12.20;7.10;;;;;;;30.87;40.39;100825.40;104358;1287;60944;-75
2022/08/06 10:50:13;;;;;;;8.20;6.90;;;;;;;31.57;38.61;100823.23;104331;1288;60126;-74
2022/08/06 10:53:05;;;;;;;8.90;7.80;;;;;;;31.80;37.92;100823.86;104407;1288;64078;-75
2022/08/06 10:55:36;;;;;;;8.30;7.30;;;;;;;31.63;37.49;100824.95;104343;1288;60779;-76
2022/08/06 10:58:13;;;;;;;7.50;6.80;;;;;;;31.45;37.94;100831.68;104470;1288;59037;-76
2022/08/06 11:00:46;;;;;;;8.20;7.30;;;;;;;31.38;38.71;100831.66;104436;1287;63014;-77
2022/08/06 11:03:38;;;;;;;8.30;7.50;;;;;;;31.74;38.40;100828.20;104451;1283;62028;-75
2022/08/06 11:06:31;;;;;;;9.60;7.10;;;;;;;31.57;38.81;100829.77;104538;1283;70601;-76
2022/08/06 11:09:24;;;;;;;8.00;6.80;;;;;;;31.70;38.82;100821.98;104825;1283;63180;-76
2022/08/06 11:12:45;;;;;;;7.80;6.90;;;;;;;31.80;38.31;100818.09;104708;1283;58898;-77
2022/08/06 11:15:19;;;;;;;7.40;6.70;;;;;;;32.11;37.26;100817.22;104669;1283;61432;-75
2022/08/06 11:17:54;;;;;;;8.10;6.90;;;;;;;32.38;36.91;100816.42;104708;1283;75351;-76
2022/08/06 11:21:00;;;;;;;8.30;7.40;;;;;;;32.58;36.58;100812.81;104609;1283;73187;-76
2022/08/06 11:23:31;;;;;;;8.60;7.60;;;;;;;32.57;36.21;100817.81;104638;1283;70513;-75
2022/08/06 11:26:39;;;;;;;8.00;7.00;;;;;;;31.69;38.18;100820.92;104535;1285;74086;-78
2022/08/06 11:29:15;;;;;;;;;;;;;;;31.79;37.67;100819.15;104659;1285;59554;-76
2022/08/06 11:32:49;;;;;;;9.00;6.60;;;;;;;31.35;38.21;100815.71;104760;1284;59241;-76
2022/08/06 11:35:32;;;;;;;7.80;7.10;;;;;;;30.96;38.51;100814.45;104687;1283;63034;-75
2022/08/06 11:38:48;;;;;;;10.40;7.10;;;;;;;31.06;38.58;100813.06;104670;1283;61837;-76
2022/08/06 11:41:28;;;;;;;8.30;6.70;;;;;;;32.04;36.97;100809.11;104635;1283;70824;-77
2022/08/06 11:44:19;;;;;;;8.70;6.90;;;;;;;32.83;36.33;100804.79;104582;1284;64849;-77
2022/08/06 11:47:18;;;;;;;7.50;6.80;;;;;;;33.32;35.14;100800.75;104672;1283;59259;-75
2022/08/06 11:50:45;;;;;;;9.20;7.00;;;;;;;33.65;34.55;100803.47;104549;1285;57589;-75
2022/08/06 11:53:37;;;;;;;7.90;7.10;;;;;;;33.71;34.43;100799.71;104704;1283;62282;-76
2022/08/06 11:56:20;;;;;;;8.10;7.20;;;;;;;34.09;32.99;100793.53;104635;1283;71451;-77
2022/08/06 11:59:15;;;;;;;7.10;6.40;;;;;;;34.37;33.12;100792.05;104608;1283;60737;-75
2022/08/06 12:01:47;;;;;;;9.10;6.80;;;;;;;34.16;33.12;100791.97;104598;1283;73374;-77
2022/08/06 12:04:57;;;;;;;9.70;7.00;;;;;;;33.80;33.57;100789.47;104453;1285;58909;-75
2022/08/06 12:07:30;;;;;;;8.40;7.10;;;;;;;33.68;33.95;100788.65;104641;1283;59510;-76
2022/08/06 12:10:11;;;;;;;7.30;6.50;;;;;;;33.27;34.30;100786.51;104626;1285;62216;-75
2022/08/06 12:13:39;;;;;;;8.00;7.20;;;;;;;34.29;33.47;100791.09;104524;1288;63265;-73
2022/08/06 12:16:37;;;;;;;10.10;8.00;;;;;;;34.43;32.73;100785.23;104375;1288;70094;-76
2022/08/06 12:19:13;;;;;;;9.70;7.70;;;;;;;33.71;33.15;100786.82;104579;1286;62629;-76
2022/08/06 12:21:43;;;;;;;8.40;7.40;;;;;;;33.03;34.30;100785.77;104564;1288;61277;-74
2022/08/06 12:24:23;;;;;;;11.50;8.10;;;;;;;32.73;34.73;100784.35;104485;1288;59228;-75
2022/08/06 12:26:53;;;;;;;7.50;6.80;;;;;;;32.95;34.20;100777.54;104410;1289;63090;-75
2022/08/06 12:29:22;;;;;;;13.20;8.30;;;;;;;33.79;33.53;100776.00;104482;1288;70624;-75
2022/08/06 12:32:27;;;;;;;8.70;7.00;;;;;;;34.20;31.99;100777.80;104467;1288;70579;-76
2022/08/06 12:35:03;;;;;;;8.20;6.80;;;;;;;35.14;31.19;100776.81;104608;1286;62471;-77
2022/08/06 12:42:24;;;;;;;6.20;5.60;;;;;;;36.30;29.37;100776.17;104829;1283;58128;-76
2022/08/06 12:45:12;;;;;;;7.10;6.50;;;;;;;36.73;28.89;100772.67;104658;1284;65041;-76
2022/08/06 12:48:10;;;;;;;7.40;6.60;;;;;;;36.94;28.38;100773.17;104799;1285;61826;-76